sensor_id;sensor_type;location;lat;lon;timestamp;P1;durP1;ratioP1;P2;durP2;ratioP2
11488;SDS011;5801;50.804;12.638;2022-07-06T00:01:32;3.55;;;2.40;;
11488;SDS011;5801;50.804;12.638;2022-07-06T00:03:58;2.92;;;1.90;;
11488;SDS011;5801;50.804;12.638;2022-07-06T00:06:24;3.72;;;1.88;;
11488;SDS011;5801;50.804;12.638;2022-07-06T00:08:50;2.05;;;1.75;;
11488;SDS011;5801;50.804;12.638;2022-07-06T00:11:16;7.80;;;1.92;;
11488;SDS011;5801;50.804;12.638;2022-07-06T00:13:42;2.20;;;2.00;;
11488;SDS011;5801;50.804;12.638;2022-07-06T00:16:08;2.03;;;1.83;;
11488;SDS011;5801;50.804;12.638;2022-07-06T00:18:34;2.50;;;2.30;;
11488;SDS011;5801;50.804;12.638;2022-07-06T00:21:00;3.25;;;1.88;;
11488;SDS011;5801;50.804;12.638;2022-07-06T00:23:26;3.50;;;2.03;;
11488;SDS011;5801;50.804;12.638;2022-07-06T00:25:52;2.20;;;1.92;;
11488;SDS011;5801;50.804;12.638;2022-07-06T00:28:17;3.97;;;2.42;;
11488;SDS011;5801;50.804;12.638;2022-07-06T00:30:43;1.90;;;1.80;;
11488;SDS011;5801;50.804;12.638;2022-07-06T00:33:09;3.42;;;2.03;;
11488;SDS011;5801;50.804;12.638;2022-07-06T00:35:35;3.47;;;2.20;;
11488;SDS011;5801;50.804;12.638;2022-07-06T00:38:01;1.83;;;1.70;;
11488;SDS011;5801;50.804;12.638;2022-07-06T00:40:27;2.83;;;1.90;;
11488;SDS011;5801;50.804;12.638;2022-07-06T00:42:55;1.83;;;1.73;;
11488;SDS011;5801;50.804;12.638;2022-07-06T00:45:21;5.10;;;2.03;;
11488;SDS011;5801;50.804;12.638;2022-07-06T00:47:47;2.00;;;1.80;;
11488;SDS011;5801;50.804;12.638;2022-07-06T00:50:14;3.65;;;1.90;;
11488;SDS011;5801;50.804;12.638;2022-07-06T00:52:42;2.42;;;2.22;;
11488;SDS011;5801;50.804;12.638;2022-07-06T00:55:09;3.30;;;2.20;;
11488;SDS011;5801;50.804;12.638;2022-07-06T00:57:36;3.83;;;2.00;;
11488;SDS011;5801;50.804;12.638;2022-07-06T01:00:03;2.60;;;2.17;;
11488;SDS011;5801;50.804;12.638;2022-07-06T01:02:32;2.47;;;2.10;;
11488;SDS011;5801;50.804;12.638;2022-07-06T01:04:58;3.05;;;2.33;;
11488;SDS011;5801;50.804;12.638;2022-07-06T01:07:24;3.63;;;2.70;;
11488;SDS011;5801;50.804;12.638;2022-07-06T01:09:51;2.58;;;2.17;;
11488;SDS011;5801;50.804;12.638;2022-07-06T01:12:17;3.15;;;2.38;;
11488;SDS011;5801;50.804;12.638;2022-07-06T01:14:43;3.05;;;1.73;;
11488;SDS011;5801;50.804;12.638;2022-07-06T01:17:09;3.05;;;2.30;;
11488;SDS011;5801;50.804;12.638;2022-07-06T01:19:35;2.80;;;2.55;;
11488;SDS011;5801;50.804;12.638;2022-07-06T01:22:01;4.38;;;2.30;;
11488;SDS011;5801;50.804;12.638;2022-07-06T01:24:27;2.75;;;2.47;;
11488;SDS011;5801;50.804;12.638;2022-07-06T01:26:52;2.97;;;2.42;;
11488;SDS011;5801;50.804;12.638;2022-07-06T01:29:19;2.47;;;2.28;;
11488;SDS011;5801;50.804;12.638;2022-07-06T01:31:48;2.30;;;2.10;;
11488;SDS011;5801;50.804;12.638;2022-07-06T01:34:17;12.15;;;2.85;;
11488;SDS011;5801;50.804;12.638;2022-07-06T01:36:43;3.53;;;2.67;;
11488;SDS011;5801;50.804;12.638;2022-07-06T01:39:09;3.00;;;2.67;;
11488;SDS011;5801;50.804;12.638;2022-07-06T01:41:35;5.05;;;2.70;;
11488;SDS011;5801;50.804;12.638;2022-07-06T01:44:02;2.42;;;2.20;;
11488;SDS011;5801;50.804;12.638;2022-07-06T01:46:28;4.55;;;3.00;;
11488;SDS011;5801;50.804;12.638;2022-07-06T01:48:54;3.88;;;2.55;;
11488;SDS011;5801;50.804;12.638;2022-07-06T01:51:20;3.38;;;2.58;;
11488;SDS011;5801;50.804;12.638;2022-07-06T01:53:46;2.47;;;1.92;;
11488;SDS011;5801;50.804;12.638;2022-07-06T01:56:12;2.95;;;2.63;;
11488;SDS011;5801;50.804;12.638;2022-07-06T01:58:38;3.00;;;2.40;;
11488;SDS011;5801;50.804;12.638;2022-07-06T02:01:08;2.92;;;2.38;;
11488;SDS011;5801;50.804;12.638;2022-07-06T02:03:34;3.63;;;2.80;;
11488;SDS011;5801;50.804;12.638;2022-07-06T02:06:00;5.70;;;3.03;;
11488;SDS011;5801;50.804;12.638;2022-07-06T02:08:26;3.45;;;2.65;;
11488;SDS011;5801;50.804;12.638;2022-07-06T02:10:52;2.72;;;2.47;;
11488;SDS011;5801;50.804;12.638;2022-07-06T02:13:18;2.63;;;2.42;;
11488;SDS011;5801;50.804;12.638;2022-07-06T02:15:44;2.95;;;2.53;;
11488;SDS011;5801;50.804;12.638;2022-07-06T02:18:10;5.25;;;2.65;;
11488;SDS011;5801;50.804;12.638;2022-07-06T02:20:36;2.88;;;2.40;;
11488;SDS011;5801;50.804;12.638;2022-07-06T02:23:02;3.33;;;2.40;;
11488;SDS011;5801;50.804;12.638;2022-07-06T02:25:28;2.90;;;2.63;;
11488;SDS011;5801;50.804;12.638;2022-07-06T02:27:53;4.45;;;2.50;;
11488;SDS011;5801;50.804;12.638;2022-07-06T02:30:20;3.17;;;2.60;;
11488;SDS011;5801;50.804;12.638;2022-07-06T02:32:46;2.80;;;2.60;;
11488;SDS011;5801;50.804;12.638;2022-07-06T02:35:12;3.17;;;2.22;;
11488;SDS011;5801;50.804;12.638;2022-07-06T02:37:39;4.03;;;2.53;;
11488;SDS011;5801;50.804;12.638;2022-07-06T02:40:05;2.47;;;2.22;;
11488;SDS011;5801;50.804;12.638;2022-07-06T02:42:31;5.68;;;2.22;;
11488;SDS011;5801;50.804;12.638;2022-07-06T02:44:57;3.83;;;2.83;;
11488;SDS011;5801;50.804;12.638;2022-07-06T02:47:23;2.75;;;2.28;;
11488;SDS011;5801;50.804;12.638;2022-07-06T02:49:51;2.88;;;2.22;;
11488;SDS011;5801;50.804;12.638;2022-07-06T02:52:17;2.72;;;2.40;;
11488;SDS011;5801;50.804;12.638;2022-07-06T02:54:43;4.25;;;2.50;;
11488;SDS011;5801;50.804;12.638;2022-07-06T02:57:09;2.47;;;2.25;;
11488;SDS011;5801;50.804;12.638;2022-07-06T02:59:35;2.38;;;2.17;;
11488;SDS011;5801;50.804;12.638;2022-07-06T03:02:03;2.55;;;2.35;;
11488;SDS011;5801;50.804;12.638;2022-07-06T03:04:29;2.58;;;2.35;;
11488;SDS011;5801;50.804;12.638;2022-07-06T03:06:55;6.03;;;2.63;;
11488;SDS011;5801;50.804;12.638;2022-07-06T03:09:21;2.85;;;2.53;;
11488;SDS011;5801;50.804;12.638;2022-07-06T03:11:47;6.32;;;2.30;;
11488;SDS011;5801;50.804;12.638;2022-07-06T03:14:12;2.92;;;2.30;;
11488;SDS011;5801;50.804;12.638;2022-07-06T03:16:38;3.25;;;2.50;;
11488;SDS011;5801;50.804;12.638;2022-07-06T03:19:04;3.47;;;2.63;;
11488;SDS011;5801;50.804;12.638;2022-07-06T03:21:30;4.38;;;2.35;;
11488;SDS011;5801;50.804;12.638;2022-07-06T03:23:57;2.85;;;2.40;;
11488;SDS011;5801;50.804;12.638;2022-07-06T03:26:23;3.17;;;2.70;;
11488;SDS011;5801;50.804;12.638;2022-07-06T03:28:49;3.28;;;2.53;;
11488;SDS011;5801;50.804;12.638;2022-07-06T03:31:15;3.15;;;2.85;;
11488;SDS011;5801;50.804;12.638;2022-07-06T03:33:41;5.97;;;2.42;;
11488;SDS011;5801;50.804;12.638;2022-07-06T03:36:07;3.60;;;2.60;;
11488;SDS011;5801;50.804;12.638;2022-07-06T03:38:33;3.05;;;2.63;;
11488;SDS011;5801;50.804;12.638;2022-07-06T03:40:59;3.13;;;2.50;;
11488;SDS011;5801;50.804;12.638;2022-07-06T03:43:25;5.75;;;2.70;;
11488;SDS011;5801;50.804;12.638;2022-07-06T03:45:51;3.08;;;2.38;;
11488;SDS011;5801;50.804;12.638;2022-07-06T03:48:17;4.25;;;2.53;;
11488;SDS011;5801;50.804;12.638;2022-07-06T03:50:43;3.03;;;2.33;;
11488;SDS011;5801;50.804;12.638;2022-07-06T03:53:09;3.90;;;2.65;;
11488;SDS011;5801;50.804;12.638;2022-07-06T03:55:34;4.93;;;2.67;;
11488;SDS011;5801;50.804;12.638;2022-07-06T03:58:00;3.03;;;2.50;;
11488;SDS011;5801;50.804;12.638;2022-07-06T04:00:26;6.75;;;2.55;;
11488;SDS011;5801;50.804;12.638;2022-07-06T04:02:52;6.32;;;2.92;;
11488;SDS011;5801;50.804;12.638;2022-07-06T04:05:18;6.05;;;2.63;;
11488;SDS011;5801;50.804;12.638;2022-07-06T04:07:46;3.95;;;2.67;;
11488;SDS011;5801;50.804;12.638;2022-07-06T04:10:13;6.38;;;2.30;;
11488;SDS011;5801;50.804;12.638;2022-07-06T04:12:42;5.10;;;3.05;;
11488;SDS011;5801;50.804;12.638;2022-07-06T04:15:08;3.00;;;2.22;;
11488;SDS011;5801;50.804;12.638;2022-07-06T04:17:34;3.97;;;2.70;;
11488;SDS011;5801;50.804;12.638;2022-07-06T04:20:19;2.35;;;2.00;;
11488;SDS011;5801;50.804;12.638;2022-07-06T04:22:46;3.72;;;2.00;;
11488;SDS011;5801;50.804;12.638;2022-07-06T04:25:12;3.05;;;2.40;;
11488;SDS011;5801;50.804;12.638;2022-07-06T04:27:38;3.78;;;2.20;;
11488;SDS011;5801;50.804;12.638;2022-07-06T04:30:04;2.20;;;2.00;;
11488;SDS011;5801;50.804;12.638;2022-07-06T04:32:30;3.50;;;2.42;;
11488;SDS011;5801;50.804;12.638;2022-07-06T04:34:56;4.50;;;2.17;;
11488;SDS011;5801;50.804;12.638;2022-07-06T04:37:22;4.50;;;2.00;;
11488;SDS011;5801;50.804;12.638;2022-07-06T04:39:48;3.05;;;1.90;;
11488;SDS011;5801;50.804;12.638;2022-07-06T04:42:14;4.30;;;2.00;;
11488;SDS011;5801;50.804;12.638;2022-07-06T04:44:40;5.22;;;2.00;;
11488;SDS011;5801;50.804;12.638;2022-07-06T04:47:06;4.60;;;2.17;;
11488;SDS011;5801;50.804;12.638;2022-07-06T04:49:32;5.60;;;2.10;;
11488;SDS011;5801;50.804;12.638;2022-07-06T04:51:58;7.30;;;1.90;;
11488;SDS011;5801;50.804;12.638;2022-07-06T04:54:24;4.53;;;2.10;;
11488;SDS011;5801;50.804;12.638;2022-07-06T04:56:50;2.50;;;1.98;;
11488;SDS011;5801;50.804;12.638;2022-07-06T04:59:15;4.22;;;1.73;;
11488;SDS011;5801;50.804;12.638;2022-07-06T05:01:41;2.95;;;1.90;;
11488;SDS011;5801;50.804;12.638;2022-07-06T05:04:07;5.35;;;1.90;;
11488;SDS011;5801;50.804;12.638;2022-07-06T05:06:33;3.58;;;1.80;;
11488;SDS011;5801;50.804;12.638;2022-07-06T05:08:59;2.00;;;1.83;;
11488;SDS011;5801;50.804;12.638;2022-07-06T05:11:28;6.70;;;2.28;;
11488;SDS011;5801;50.804;12.638;2022-07-06T05:13:54;4.75;;;2.08;;
11488;SDS011;5801;50.804;12.638;2022-07-06T05:16:20;5.75;;;1.60;;
11488;SDS011;5801;50.804;12.638;2022-07-06T05:18:46;5.60;;;1.92;;
11488;SDS011;5801;50.804;12.638;2022-07-06T05:21:12;2.60;;;1.80;;
11488;SDS011;5801;50.804;12.638;2022-07-06T05:23:38;7.20;;;1.90;;
11488;SDS011;5801;50.804;12.638;2022-07-06T05:26:04;4.32;;;1.67;;
11488;SDS011;5801;50.804;12.638;2022-07-06T05:28:30;4.22;;;1.95;;
11488;SDS011;5801;50.804;12.638;2022-07-06T05:30:56;5.03;;;1.67;;
11488;SDS011;5801;50.804;12.638;2022-07-06T05:33:22;7.20;;;1.85;;
11488;SDS011;5801;50.804;12.638;2022-07-06T05:35:48;3.03;;;1.50;;
11488;SDS011;5801;50.804;12.638;2022-07-06T05:38:14;2.47;;;1.45;;
11488;SDS011;5801;50.804;12.638;2022-07-06T05:40:40;5.35;;;1.80;;
11488;SDS011;5801;50.804;12.638;2022-07-06T05:43:06;5.13;;;1.70;;
11488;SDS011;5801;50.804;12.638;2022-07-06T05:45:32;7.38;;;2.00;;
11488;SDS011;5801;50.804;12.638;2022-07-06T05:47:57;3.38;;;1.25;;
11488;SDS011;5801;50.804;12.638;2022-07-06T05:50:42;3.33;;;1.30;;
11488;SDS011;5801;50.804;12.638;2022-07-06T05:53:08;5.78;;;1.83;;
11488;SDS011;5801;50.804;12.638;2022-07-06T05:55:34;2.55;;;1.40;;
11488;SDS011;5801;50.804;12.638;2022-07-06T05:58:00;6.22;;;1.58;;
11488;SDS011;5801;50.804;12.638;2022-07-06T06:00:27;6.95;;;1.30;;
11488;SDS011;5801;50.804;12.638;2022-07-06T06:02:53;2.60;;;1.33;;
11488;SDS011;5801;50.804;12.638;2022-07-06T06:05:19;4.38;;;1.40;;
11488;SDS011;5801;50.804;12.638;2022-07-06T06:07:45;4.25;;;1.40;;
11488;SDS011;5801;50.804;12.638;2022-07-06T06:10:13;2.55;;;1.48;;
11488;SDS011;5801;50.804;12.638;2022-07-06T06:12:39;2.10;;;1.10;;
11488;SDS011;5801;50.804;12.638;2022-07-06T06:15:06;1.83;;;1.40;;
11488;SDS011;5801;50.804;12.638;2022-07-06T06:17:33;5.38;;;1.40;;
11488;SDS011;5801;50.804;12.638;2022-07-06T06:19:59;4.15;;;1.05;;
11488;SDS011;5801;50.804;12.638;2022-07-06T06:22:25;1.33;;;1.23;;
11488;SDS011;5801;50.804;12.638;2022-07-06T06:24:51;2.55;;;1.30;;
11488;SDS011;5801;50.804;12.638;2022-07-06T06:27:17;2.25;;;1.13;;
11488;SDS011;5801;50.804;12.638;2022-07-06T06:29:43;2.38;;;1.13;;
11488;SDS011;5801;50.804;12.638;2022-07-06T06:32:10;6.13;;;1.60;;
11488;SDS011;5801;50.804;12.638;2022-07-06T06:34:36;1.83;;;1.13;;
11488;SDS011;5801;50.804;12.638;2022-07-06T06:37:02;2.17;;;1.20;;
11488;SDS011;5801;50.804;12.638;2022-07-06T06:39:28;2.03;;;1.00;;
11488;SDS011;5801;50.804;12.638;2022-07-06T06:41:54;4.63;;;1.05;;
11488;SDS011;5801;50.804;12.638;2022-07-06T06:44:20;2.38;;;1.42;;
11488;SDS011;5801;50.804;12.638;2022-07-06T06:46:48;3.00;;;1.20;;
11488;SDS011;5801;50.804;12.638;2022-07-06T06:49:14;3.55;;;1.35;;
11488;SDS011;5801;50.804;12.638;2022-07-06T06:51:39;1.30;;;1.20;;
11488;SDS011;5801;50.804;12.638;2022-07-06T06:54:05;1.50;;;0.98;;
11488;SDS011;5801;50.804;12.638;2022-07-06T06:56:31;2.50;;;1.17;;
11488;SDS011;5801;50.804;12.638;2022-07-06T06:58:57;8.68;;;1.15;;
11488;SDS011;5801;50.804;12.638;2022-07-06T07:01:23;1.95;;;1.00;;
11488;SDS011;5801;50.804;12.638;2022-07-06T07:03:50;1.85;;;0.90;;
11488;SDS011;5801;50.804;12.638;2022-07-06T07:06:16;1.13;;;1.02;;
11488;SDS011;5801;50.804;12.638;2022-07-06T07:08:42;1.70;;;0.95;;
11488;SDS011;5801;50.804;12.638;2022-07-06T07:11:08;2.75;;;1.17;;
11488;SDS011;5801;50.804;12.638;2022-07-06T07:13:34;1.10;;;1.00;;
11488;SDS011;5801;50.804;12.638;2022-07-06T07:16:00;4.95;;;1.08;;
11488;SDS011;5801;50.804;12.638;2022-07-06T07:18:26;3.22;;;1.00;;
11488;SDS011;5801;50.804;12.638;2022-07-06T07:20:52;4.65;;;1.83;;
11488;SDS011;5801;50.804;12.638;2022-07-06T07:23:18;2.25;;;1.50;;
11488;SDS011;5801;50.804;12.638;2022-07-06T07:25:44;1.10;;;1.00;;
11488;SDS011;5801;50.804;12.638;2022-07-06T07:28:10;3.20;;;1.10;;
11488;SDS011;5801;50.804;12.638;2022-07-06T07:30:36;6.63;;;1.17;;
11488;SDS011;5801;50.804;12.638;2022-07-06T07:33:02;1.67;;;1.13;;
11488;SDS011;5801;50.804;12.638;2022-07-06T07:35:27;1.30;;;0.90;;
11488;SDS011;5801;50.804;12.638;2022-07-06T07:37:53;2.88;;;1.00;;
11488;SDS011;5801;50.804;12.638;2022-07-06T07:40:19;6.85;;;1.05;;
11488;SDS011;5801;50.804;12.638;2022-07-06T07:42:46;4.53;;;1.20;;
11488;SDS011;5801;50.804;12.638;2022-07-06T07:45:12;1.02;;;0.90;;
11488;SDS011;5801;50.804;12.638;2022-07-06T07:47:38;6.78;;;1.33;;
11488;SDS011;5801;50.804;12.638;2022-07-06T07:50:04;0.82;;;0.77;;
11488;SDS011;5801;50.804;12.638;2022-07-06T07:52:31;3.42;;;0.88;;
11488;SDS011;5801;50.804;12.638;2022-07-06T07:54:57;3.72;;;1.25;;
11488;SDS011;5801;50.804;12.638;2022-07-06T07:57:23;2.97;;;1.00;;
11488;SDS011;5801;50.804;12.638;2022-07-06T07:59:49;1.73;;;0.85;;
11488;SDS011;5801;50.804;12.638;2022-07-06T08:02:15;2.03;;;0.90;;
11488;SDS011;5801;50.804;12.638;2022-07-06T08:04:41;1.00;;;0.90;;
11488;SDS011;5801;50.804;12.638;2022-07-06T08:07:07;3.47;;;1.00;;
11488;SDS011;5801;50.804;12.638;2022-07-06T08:09:33;1.80;;;1.00;;
11488;SDS011;5801;50.804;12.638;2022-07-06T08:11:59;5.20;;;1.23;;
11488;SDS011;5801;50.804;12.638;2022-07-06T08:14:25;2.90;;;1.08;;
11488;SDS011;5801;50.804;12.638;2022-07-06T08:16:51;4.55;;;1.25;;
11488;SDS011;5801;50.804;12.638;2022-07-06T08:19:17;1.63;;;1.10;;
11488;SDS011;5801;50.804;12.638;2022-07-06T08:21:43;2.53;;;1.30;;
11488;SDS011;5801;50.804;12.638;2022-07-06T08:24:09;2.53;;;1.20;;
11488;SDS011;5801;50.804;12.638;2022-07-06T08:26:35;1.02;;;0.90;;
11488;SDS011;5801;50.804;12.638;2022-07-06T08:29:02;1.45;;;0.90;;
11488;SDS011;5801;50.804;12.638;2022-07-06T08:31:28;2.50;;;1.00;;
11488;SDS011;5801;50.804;12.638;2022-07-06T08:33:54;1.50;;;0.80;;
11488;SDS011;5801;50.804;12.638;2022-07-06T08:36:20;2.63;;;0.98;;
11488;SDS011;5801;50.804;12.638;2022-07-06T08:38:46;1.67;;;1.10;;
11488;SDS011;5801;50.804;12.638;2022-07-06T08:41:13;1.77;;;1.15;;
11488;SDS011;5801;50.804;12.638;2022-07-06T08:43:39;1.30;;;0.98;;
11488;SDS011;5801;50.804;12.638;2022-07-06T08:46:06;5.20;;;1.05;;
11488;SDS011;5801;50.804;12.638;2022-07-06T08:48:35;6.97;;;1.52;;
11488;SDS011;5801;50.804;12.638;2022-07-06T08:51:02;4.88;;;0.88;;
11488;SDS011;5801;50.804;12.638;2022-07-06T08:53:28;4.10;;;1.20;;
11488;SDS011;5801;50.804;12.638;2022-07-06T08:55:54;5.28;;;1.40;;
11488;SDS011;5801;50.804;12.638;2022-07-06T08:58:20;4.88;;;1.30;;
11488;SDS011;5801;50.804;12.638;2022-07-06T09:00:49;3.10;;;1.27;;
11488;SDS011;5801;50.804;12.638;2022-07-06T09:03:15;3.22;;;2.35;;
11488;SDS011;5801;50.804;12.638;2022-07-06T09:05:41;5.60;;;1.05;;
11488;SDS011;5801;50.804;12.638;2022-07-06T09:08:10;2.85;;;1.30;;
11488;SDS011;5801;50.804;12.638;2022-07-06T09:10:36;2.00;;;1.20;;
11488;SDS011;5801;50.804;12.638;2022-07-06T09:13:03;8.68;;;1.20;;
11488;SDS011;5801;50.804;12.638;2022-07-06T09:15:29;1.40;;;1.05;;
11488;SDS011;5801;50.804;12.638;2022-07-06T09:17:56;6.20;;;1.42;;
11488;SDS011;5801;50.804;12.638;2022-07-06T09:20:22;1.40;;;1.23;;
11488;SDS011;5801;50.804;12.638;2022-07-06T09:22:48;1.85;;;1.27;;
11488;SDS011;5801;50.804;12.638;2022-07-06T09:25:15;1.77;;;1.10;;
11488;SDS011;5801;50.804;12.638;2022-07-06T09:27:42;3.58;;;1.83;;
11488;SDS011;5801;50.804;12.638;2022-07-06T09:30:11;4.30;;;1.50;;
11488;SDS011;5801;50.804;12.638;2022-07-06T09:32:40;5.30;;;1.40;;
11488;SDS011;5801;50.804;12.638;2022-07-06T09:35:07;1.73;;;1.45;;
11488;SDS011;5801;50.804;12.638;2022-07-06T09:37:33;7.50;;;1.65;;
11488;SDS011;5801;50.804;12.638;2022-07-06T09:39:59;5.43;;;1.45;;
11488;SDS011;5801;50.804;12.638;2022-07-06T09:42:26;2.28;;;1.40;;
11488;SDS011;5801;50.804;12.638;2022-07-06T09:44:52;5.00;;;1.50;;
11488;SDS011;5801;50.804;12.638;2022-07-06T09:47:18;1.77;;;1.30;;
11488;SDS011;5801;50.804;12.638;2022-07-06T09:49:45;8.30;;;1.42;;
11488;SDS011;5801;50.804;12.638;2022-07-06T09:52:13;3.35;;;1.63;;
11488;SDS011;5801;50.804;12.638;2022-07-06T09:54:39;2.03;;;1.42;;
11488;SDS011;5801;50.804;12.638;2022-07-06T09:57:06;4.22;;;1.60;;
11488;SDS011;5801;50.804;12.638;2022-07-06T09:59:33;4.20;;;1.67;;
11488;SDS011;5801;50.804;12.638;2022-07-06T10:02:03;2.13;;;1.48;;
11488;SDS011;5801;50.804;12.638;2022-07-06T10:04:30;2.00;;;1.58;;
11488;SDS011;5801;50.804;12.638;2022-07-06T10:06:56;2.45;;;1.42;;
11488;SDS011;5801;50.804;12.638;2022-07-06T10:09:23;2.45;;;1.42;;
11488;SDS011;5801;50.804;12.638;2022-07-06T10:14:22;1.83;;;1.73;;
11488;SDS011;5801;50.804;12.638;2022-07-06T10:16:49;2.50;;;1.70;;
11488;SDS011;5801;50.804;12.638;2022-07-06T10:19:15;3.42;;;1.98;;
11488;SDS011;5801;50.804;12.638;2022-07-06T10:21:42;1.70;;;1.60;;
11488;SDS011;5801;50.804;12.638;2022-07-06T10:24:08;3.67;;;1.80;;
11488;SDS011;5801;50.804;12.638;2022-07-06T10:26:34;2.80;;;1.80;;
11488;SDS011;5801;50.804;12.638;2022-07-06T10:29:04;6.65;;;2.08;;
11488;SDS011;5801;50.804;12.638;2022-07-06T10:31:31;2.92;;;1.83;;
11488;SDS011;5801;50.804;12.638;2022-07-06T10:33:57;3.92;;;1.60;;
11488;SDS011;5801;50.804;12.638;2022-07-06T10:36:24;3.42;;;1.70;;
11488;SDS011;5801;50.804;12.638;2022-07-06T10:38:51;1.60;;;1.45;;
11488;SDS011;5801;50.804;12.638;2022-07-06T10:41:17;5.35;;;1.67;;
11488;SDS011;5801;50.804;12.638;2022-07-06T10:43:45;3.47;;;2.08;;
11488;SDS011;5801;50.804;12.638;2022-07-06T10:46:15;4.63;;;2.28;;
11488;SDS011;5801;50.804;12.638;2022-07-06T10:48:43;1.92;;;1.60;;
11488;SDS011;5801;50.804;12.638;2022-07-06T10:51:12;2.10;;;1.60;;
11488;SDS011;5801;50.804;12.638;2022-07-06T10:53:40;2.65;;;1.70;;
11488;SDS011;5801;50.804;12.638;2022-07-06T10:56:07;1.83;;;1.73;;
11488;SDS011;5801;50.804;12.638;2022-07-06T10:58:40;4.30;;;1.63;;
11488;SDS011;5801;50.804;12.638;2022-07-06T11:01:09;2.17;;;1.80;;
11488;SDS011;5801;50.804;12.638;2022-07-06T11:06:04;3.42;;;1.90;;
11488;SDS011;5801;50.804;12.638;2022-07-06T11:13:43;3.08;;;1.60;;
11488;SDS011;5801;50.804;12.638;2022-07-06T11:16:09;4.50;;;1.80;;
11488;SDS011;5801;50.804;12.638;2022-07-06T11:18:38;2.30;;;1.80;;
11488;SDS011;5801;50.804;12.638;2022-07-06T11:21:21;8.57;;;1.27;;
11488;SDS011;5801;50.804;12.638;2022-07-06T11:23:48;3.03;;;1.70;;
11488;SDS011;5801;50.804;12.638;2022-07-06T11:26:15;4.13;;;1.58;;
11488;SDS011;5801;50.804;12.638;2022-07-06T11:28:41;8.93;;;1.48;;
11488;SDS011;5801;50.804;12.638;2022-07-06T11:31:07;6.70;;;1.38;;
11488;SDS011;5801;50.804;12.638;2022-07-06T11:33:33;4.28;;;1.13;;
11488;SDS011;5801;50.804;12.638;2022-07-06T11:36:15;5.75;;;1.58;;
11488;SDS011;5801;50.804;12.638;2022-07-06T11:38:42;2.50;;;1.27;;
11488;SDS011;5801;50.804;12.638;2022-07-06T11:41:08;3.17;;;1.30;;
11488;SDS011;5801;50.804;12.638;2022-07-06T11:43:34;3.03;;;1.10;;
11488;SDS011;5801;50.804;12.638;2022-07-06T11:46:02;3.35;;;1.52;;
11488;SDS011;5801;50.804;12.638;2022-07-06T11:48:28;2.25;;;1.13;;
11488;SDS011;5801;50.804;12.638;2022-07-06T11:50:58;3.05;;;1.40;;
11488;SDS011;5801;50.804;12.638;2022-07-06T11:53:24;6.10;;;1.20;;
11488;SDS011;5801;50.804;12.638;2022-07-06T11:55:50;1.85;;;1.40;;
11488;SDS011;5801;50.804;12.638;2022-07-06T11:58:17;1.48;;;0.98;;
11488;SDS011;5801;50.804;12.638;2022-07-06T12:01:02;1.73;;;1.20;;
11488;SDS011;5801;50.804;12.638;2022-07-06T12:03:28;6.07;;;1.52;;
11488;SDS011;5801;50.804;12.638;2022-07-06T12:05:54;5.15;;;1.20;;
11488;SDS011;5801;50.804;12.638;2022-07-06T12:08:20;1.73;;;1.17;;
11488;SDS011;5801;50.804;12.638;2022-07-06T12:10:46;4.60;;;1.55;;
11488;SDS011;5801;50.804;12.638;2022-07-06T12:13:12;0.90;;;0.90;;
11488;SDS011;5801;50.804;12.638;2022-07-06T12:15:38;5.65;;;1.33;;
11488;SDS011;5801;50.804;12.638;2022-07-06T12:18:04;2.75;;;1.23;;
11488;SDS011;5801;50.804;12.638;2022-07-06T12:20:29;6.05;;;1.10;;
11488;SDS011;5801;50.804;12.638;2022-07-06T12:23:05;2.20;;;1.00;;
11488;SDS011;5801;50.804;12.638;2022-07-06T12:27:57;3.15;;;1.30;;
11488;SDS011;5801;50.804;12.638;2022-07-06T12:30:23;1.73;;;1.33;;
11488;SDS011;5801;50.804;12.638;2022-07-06T12:35:33;5.20;;;1.38;;
11488;SDS011;5801;50.804;12.638;2022-07-06T12:37:59;1.55;;;1.10;;
11488;SDS011;5801;50.804;12.638;2022-07-06T12:40:26;2.20;;;1.30;;
11488;SDS011;5801;50.804;12.638;2022-07-06T12:42:52;1.70;;;1.20;;
11488;SDS011;5801;50.804;12.638;2022-07-06T12:45:18;4.15;;;1.52;;
11488;SDS011;5801;50.804;12.638;2022-07-06T12:48:00;2.83;;;1.23;;
11488;SDS011;5801;50.804;12.638;2022-07-06T12:50:46;2.83;;;1.02;;
11488;SDS011;5801;50.804;12.638;2022-07-06T12:53:24;1.95;;;1.25;;
11488;SDS011;5801;50.804;12.638;2022-07-06T12:56:09;4.00;;;1.20;;
11488;SDS011;5801;50.804;12.638;2022-07-06T12:58:35;1.30;;;1.20;;
11488;SDS011;5801;50.804;12.638;2022-07-06T13:01:01;1.65;;;1.02;;
11488;SDS011;5801;50.804;12.638;2022-07-06T13:03:27;3.10;;;1.35;;
11488;SDS011;5801;50.804;12.638;2022-07-06T13:05:53;2.42;;;1.10;;
11488;SDS011;5801;50.804;12.638;2022-07-06T13:08:19;1.15;;;1.05;;
11488;SDS011;5801;50.804;12.638;2022-07-06T13:10:45;4.47;;;1.20;;
11488;SDS011;5801;50.804;12.638;2022-07-06T13:13:12;3.03;;;1.50;;
11488;SDS011;5801;50.804;12.638;2022-07-06T13:15:40;1.13;;;1.00;;
11488;SDS011;5801;50.804;12.638;2022-07-06T13:18:06;4.13;;;1.17;;
11488;SDS011;5801;50.804;12.638;2022-07-06T13:20:32;1.35;;;1.08;;
11488;SDS011;5801;50.804;12.638;2022-07-06T13:22:58;2.75;;;1.08;;
11488;SDS011;5801;50.804;12.638;2022-07-06T13:25:24;4.82;;;1.02;;
11488;SDS011;5801;50.804;12.638;2022-07-06T13:27:50;7.55;;;1.20;;
11488;SDS011;5801;50.804;12.638;2022-07-06T13:30:16;1.80;;;1.35;;
11488;SDS011;5801;50.804;12.638;2022-07-06T13:32:42;1.25;;;1.13;;
11488;SDS011;5801;50.804;12.638;2022-07-06T13:35:08;4.10;;;1.02;;
11488;SDS011;5801;50.804;12.638;2022-07-06T13:37:34;1.67;;;1.23;;
11488;SDS011;5801;50.804;12.638;2022-07-06T13:40:00;2.22;;;1.10;;
11488;SDS011;5801;50.804;12.638;2022-07-06T13:42:26;1.95;;;1.30;;
11488;SDS011;5801;50.804;12.638;2022-07-06T13:44:52;1.90;;;1.00;;
11488;SDS011;5801;50.804;12.638;2022-07-06T13:47:18;1.23;;;1.15;;
11488;SDS011;5801;50.804;12.638;2022-07-06T13:49:44;1.35;;;0.90;;
11488;SDS011;5801;50.804;12.638;2022-07-06T13:52:12;1.95;;;1.05;;
11488;SDS011;5801;50.804;12.638;2022-07-06T13:54:38;2.63;;;0.90;;
11488;SDS011;5801;50.804;12.638;2022-07-06T13:57:04;1.65;;;1.08;;
11488;SDS011;5801;50.804;12.638;2022-07-06T13:59:31;1.05;;;0.75;;
11488;SDS011;5801;50.804;12.638;2022-07-06T14:01:57;2.45;;;1.10;;
11488;SDS011;5801;50.804;12.638;2022-07-06T14:04:24;1.10;;;0.88;;
11488;SDS011;5801;50.804;12.638;2022-07-06T14:06:49;8.40;;;1.20;;
11488;SDS011;5801;50.804;12.638;2022-07-06T14:09:15;3.45;;;0.85;;
11488;SDS011;5801;50.804;12.638;2022-07-06T14:11:41;2.78;;;0.90;;
11488;SDS011;5801;50.804;12.638;2022-07-06T14:14:07;1.02;;;0.80;;
11488;SDS011;5801;50.804;12.638;2022-07-06T14:16:34;0.80;;;0.80;;
11488;SDS011;5801;50.804;12.638;2022-07-06T14:19:00;1.50;;;1.23;;
11488;SDS011;5801;50.804;12.638;2022-07-06T14:21:26;0.88;;;0.88;;
11488;SDS011;5801;50.804;12.638;2022-07-06T14:23:52;2.83;;;0.98;;
11488;SDS011;5801;50.804;12.638;2022-07-06T14:26:18;1.02;;;0.90;;
11488;SDS011;5801;50.804;12.638;2022-07-06T14:28:44;3.50;;;0.80;;
11488;SDS011;5801;50.804;12.638;2022-07-06T14:31:10;1.20;;;0.60;;
11488;SDS011;5801;50.804;12.638;2022-07-06T14:33:36;3.00;;;0.82;;
11488;SDS011;5801;50.804;12.638;2022-07-06T14:36:02;0.95;;;0.95;;
11488;SDS011;5801;50.804;12.638;2022-07-06T14:38:28;0.80;;;0.80;;
11488;SDS011;5801;50.804;12.638;2022-07-06T14:40:54;4.43;;;0.85;;
11488;SDS011;5801;50.804;12.638;2022-07-06T14:43:20;7.60;;;1.05;;
11488;SDS011;5801;50.804;12.638;2022-07-06T14:45:46;1.73;;;0.85;;
11488;SDS011;5801;50.804;12.638;2022-07-06T14:48:13;3.17;;;0.80;;
11488;SDS011;5801;50.804;12.638;2022-07-06T14:50:39;3.00;;;0.90;;
11488;SDS011;5801;50.804;12.638;2022-07-06T14:53:05;1.48;;;0.93;;
11488;SDS011;5801;50.804;12.638;2022-07-06T14:55:31;1.05;;;0.70;;
11488;SDS011;5801;50.804;12.638;2022-07-06T14:57:57;1.25;;;0.88;;
11488;SDS011;5801;50.804;12.638;2022-07-06T15:00:23;2.13;;;0.60;;